sensor_id;sensor_type;location;lat;lon;timestamp;P1;durP1;ratioP1;P2;durP2;ratioP2
1715;SDS011;855;48.824;9.220;2022-12-18T00:00:39;54.65;;;17.85;;
1715;SDS011;855;48.824;9.220;2022-12-18T00:03:06;60.55;;;20.20;;
1715;SDS011;855;48.824;9.220;2022-12-18T00:05:33;51.20;;;19.10;;
1715;SDS011;855;48.824;9.220;2022-12-18T00:08:01;56.63;;;19.45;;
1715;SDS011;855;48.824;9.220;2022-12-18T00:10:28;56.38;;;20.92;;
1715;SDS011;855;48.824;9.220;2022-12-18T00:12:55;59.67;;;18.30;;
1715;SDS011;855;48.824;9.220;2022-12-18T00:15:22;56.97;;;18.45;;
1715;SDS011;855;48.824;9.220;2022-12-18T00:17:49;51.72;;;19.10;;
1715;SDS011;855;48.824;9.220;2022-12-18T00:20:16;63.00;;;22.10;;
1715;SDS011;855;48.824;9.220;2022-12-18T00:22:46;57.00;;;20.00;;
1715;SDS011;855;48.824;9.220;2022-12-18T00:25:14;59.78;;;20.80;;
1715;SDS011;855;48.824;9.220;2022-12-18T00:27:41;80.53;;;18.08;;
1715;SDS011;855;48.824;9.220;2022-12-18T00:30:08;56.85;;;18.67;;
1715;SDS011;855;48.824;9.220;2022-12-18T00:32:36;65.65;;;21.13;;
1715;SDS011;855;48.824;9.220;2022-12-18T00:35:03;45.67;;;15.85;;
1715;SDS011;855;48.824;9.220;2022-12-18T00:37:31;62.08;;;21.13;;
1715;SDS011;855;48.824;9.220;2022-12-18T00:39:59;55.17;;;18.92;;
1715;SDS011;855;48.824;9.220;2022-12-18T00:42:27;60.20;;;20.75;;
1715;SDS011;855;48.824;9.220;2022-12-18T00:45:11;59.75;;;18.75;;
1715;SDS011;855;48.824;9.220;2022-12-18T00:47:39;60.22;;;17.50;;
1715;SDS011;855;48.824;9.220;2022-12-18T00:50:06;56.78;;;17.38;;
1715;SDS011;855;48.824;9.220;2022-12-18T00:52:35;57.50;;;16.45;;
1715;SDS011;855;48.824;9.220;2022-12-18T00:55:09;59.47;;;19.17;;
1715;SDS011;855;48.824;9.220;2022-12-18T00:57:38;55.22;;;20.60;;
1715;SDS011;855;48.824;9.220;2022-12-18T01:00:06;53.85;;;16.50;;
1715;SDS011;855;48.824;9.220;2022-12-18T01:02:36;42.33;;;16.65;;
1715;SDS011;855;48.824;9.220;2022-12-18T01:05:04;43.80;;;15.82;;
1715;SDS011;855;48.824;9.220;2022-12-18T01:07:31;47.67;;;16.27;;
1715;SDS011;855;48.824;9.220;2022-12-18T01:09:58;59.33;;;22.83;;
1715;SDS011;855;48.824;9.220;2022-12-18T01:12:25;66.63;;;20.50;;
1715;SDS011;855;48.824;9.220;2022-12-18T01:14:53;71.43;;;20.05;;
1715;SDS011;855;48.824;9.220;2022-12-18T01:17:20;86.15;;;23.63;;
1715;SDS011;855;48.824;9.220;2022-12-18T01:19:47;70.30;;;20.60;;
1715;SDS011;855;48.824;9.220;2022-12-18T01:22:14;75.45;;;22.08;;
1715;SDS011;855;48.824;9.220;2022-12-18T01:24:40;79.57;;;20.90;;
1715;SDS011;855;48.824;9.220;2022-12-18T01:27:07;56.95;;;18.67;;
1715;SDS011;855;48.824;9.220;2022-12-18T01:29:34;80.82;;;22.20;;
1715;SDS011;855;48.824;9.220;2022-12-18T01:32:02;59.72;;;20.23;;
1715;SDS011;855;48.824;9.220;2022-12-18T01:34:29;67.15;;;18.88;;
1715;SDS011;855;48.824;9.220;2022-12-18T01:36:56;70.82;;;21.15;;
1715;SDS011;855;48.824;9.220;2022-12-18T01:39:23;59.17;;;17.90;;
1715;SDS011;855;48.824;9.220;2022-12-18T01:41:50;59.10;;;22.02;;
1715;SDS011;855;48.824;9.220;2022-12-18T01:47:30;76.65;;;19.00;;
1715;SDS011;855;48.824;9.220;2022-12-18T01:50:02;73.50;;;21.42;;
1715;SDS011;855;48.824;9.220;2022-12-18T01:52:32;60.88;;;18.02;;
1715;SDS011;855;48.824;9.220;2022-12-18T01:55:01;54.65;;;19.52;;
1715;SDS011;855;48.824;9.220;2022-12-18T01:57:30;64.88;;;18.45;;
1715;SDS011;855;48.824;9.220;2022-12-18T01:59:59;82.47;;;22.70;;
1715;SDS011;855;48.824;9.220;2022-12-18T02:02:27;60.67;;;22.23;;
1715;SDS011;855;48.824;9.220;2022-12-18T02:04:56;59.42;;;17.60;;
1715;SDS011;855;48.824;9.220;2022-12-18T02:07:26;61.70;;;18.38;;
1715;SDS011;855;48.824;9.220;2022-12-18T02:10:00;64.38;;;18.70;;
1715;SDS011;855;48.824;9.220;2022-12-18T02:12:34;63.05;;;20.30;;
1715;SDS011;855;48.824;9.220;2022-12-18T02:15:09;54.72;;;15.20;;
1715;SDS011;855;48.824;9.220;2022-12-18T02:17:43;63.45;;;17.40;;
1715;SDS011;855;48.824;9.220;2022-12-18T02:20:14;76.50;;;20.88;;
1715;SDS011;855;48.824;9.220;2022-12-18T02:22:49;62.33;;;17.85;;
1715;SDS011;855;48.824;9.220;2022-12-18T02:25:29;72.63;;;20.05;;
1715;SDS011;855;48.824;9.220;2022-12-18T02:28:19;61.50;;;20.50;;
1715;SDS011;855;48.824;9.220;2022-12-18T02:30:48;37.83;;;15.10;;
1715;SDS011;855;48.824;9.220;2022-12-18T02:33:19;77.30;;;17.67;;
1715;SDS011;855;48.824;9.220;2022-12-18T02:35:49;61.58;;;16.48;;
1715;SDS011;855;48.824;9.220;2022-12-18T02:38:17;59.33;;;20.25;;
1715;SDS011;855;48.824;9.220;2022-12-18T02:40:44;52.40;;;17.73;;
1715;SDS011;855;48.824;9.220;2022-12-18T02:43:15;49.30;;;16.42;;
1715;SDS011;855;48.824;9.220;2022-12-18T02:45:48;73.15;;;18.10;;
1715;SDS011;855;48.824;9.220;2022-12-18T02:48:18;49.78;;;16.40;;
1715;SDS011;855;48.824;9.220;2022-12-18T02:50:52;42.50;;;13.88;;
1715;SDS011;855;48.824;9.220;2022-12-18T02:53:27;45.58;;;16.88;;
1715;SDS011;855;48.824;9.220;2022-12-18T02:56:01;55.72;;;18.63;;
1715;SDS011;855;48.824;9.220;2022-12-18T02:58:35;76.22;;;18.17;;
1715;SDS011;855;48.824;9.220;2022-12-18T03:01:09;37.35;;;16.15;;
1715;SDS011;855;48.824;9.220;2022-12-18T03:03:40;63.20;;;16.50;;
1715;SDS011;855;48.824;9.220;2022-12-18T03:06:10;53.45;;;15.63;;
1715;SDS011;855;48.824;9.220;2022-12-18T03:08:44;59.25;;;16.23;;
1715;SDS011;855;48.824;9.220;2022-12-18T03:11:14;52.70;;;16.55;;
1715;SDS011;855;48.824;9.220;2022-12-18T03:14:02;50.15;;;17.27;;
1715;SDS011;855;48.824;9.220;2022-12-18T03:16:32;43.03;;;15.20;;
1715;SDS011;855;48.824;9.220;2022-12-18T03:19:01;51.22;;;16.63;;
1715;SDS011;855;48.824;9.220;2022-12-18T03:21:29;60.30;;;15.13;;
1715;SDS011;855;48.824;9.220;2022-12-18T03:24:03;52.83;;;16.65;;
1715;SDS011;855;48.824;9.220;2022-12-18T03:26:33;50.25;;;17.33;;
1715;SDS011;855;48.824;9.220;2022-12-18T03:29:04;43.45;;;15.27;;
1715;SDS011;855;48.824;9.220;2022-12-18T03:31:35;59.85;;;15.40;;
1715;SDS011;855;48.824;9.220;2022-12-18T03:34:08;57.13;;;17.60;;
1715;SDS011;855;48.824;9.220;2022-12-18T03:36:39;37.47;;;13.07;;
1715;SDS011;855;48.824;9.220;2022-12-18T03:39:06;39.60;;;13.90;;
1715;SDS011;855;48.824;9.220;2022-12-18T03:41:37;89.95;;;17.55;;
1715;SDS011;855;48.824;9.220;2022-12-18T03:44:11;54.72;;;14.52;;
1715;SDS011;855;48.824;9.220;2022-12-18T03:46:41;46.13;;;14.18;;
1715;SDS011;855;48.824;9.220;2022-12-18T03:49:17;45.40;;;13.80;;
1715;SDS011;855;48.824;9.220;2022-12-18T03:51:51;43.88;;;15.10;;
1715;SDS011;855;48.824;9.220;2022-12-18T03:54:20;41.22;;;15.35;;
1715;SDS011;855;48.824;9.220;2022-12-18T03:56:51;46.47;;;14.70;;
1715;SDS011;855;48.824;9.220;2022-12-18T03:59:23;52.60;;;15.10;;
1715;SDS011;855;48.824;9.220;2022-12-18T04:01:52;47.63;;;14.35;;
1715;SDS011;855;48.824;9.220;2022-12-18T04:04:21;48.30;;;15.20;;
1715;SDS011;855;48.824;9.220;2022-12-18T04:06:50;48.30;;;14.48;;
1715;SDS011;855;48.824;9.220;2022-12-18T04:09:18;40.17;;;13.88;;
1715;SDS011;855;48.824;9.220;2022-12-18T04:11:45;45.75;;;15.73;;
1715;SDS011;855;48.824;9.220;2022-12-18T04:14:13;50.78;;;13.75;;
1715;SDS011;855;48.824;9.220;2022-12-18T04:16:41;37.85;;;14.55;;
1715;SDS011;855;48.824;9.220;2022-12-18T04:19:08;53.22;;;14.57;;
1715;SDS011;855;48.824;9.220;2022-12-18T04:21:35;51.13;;;15.35;;
1715;SDS011;855;48.824;9.220;2022-12-18T04:24:02;57.53;;;14.63;;
1715;SDS011;855;48.824;9.220;2022-12-18T04:26:29;50.58;;;14.68;;
1715;SDS011;855;48.824;9.220;2022-12-18T04:28:56;41.55;;;14.68;;
1715;SDS011;855;48.824;9.220;2022-12-18T04:31:22;44.58;;;14.93;;
1715;SDS011;855;48.824;9.220;2022-12-18T04:33:50;48.63;;;15.80;;
1715;SDS011;855;48.824;9.220;2022-12-18T04:36:17;45.58;;;14.73;;
1715;SDS011;855;48.824;9.220;2022-12-18T04:38:44;47.10;;;16.60;;
1715;SDS011;855;48.824;9.220;2022-12-18T04:41:14;46.67;;;16.67;;
1715;SDS011;855;48.824;9.220;2022-12-18T04:43:40;55.20;;;16.50;;
1715;SDS011;855;48.824;9.220;2022-12-18T04:46:07;35.42;;;12.85;;
1715;SDS011;855;48.824;9.220;2022-12-18T04:48:34;39.85;;;13.90;;
1715;SDS011;855;48.824;9.220;2022-12-18T04:51:03;47.45;;;16.05;;
1715;SDS011;855;48.824;9.220;2022-12-18T04:53:31;60.90;;;16.60;;
1715;SDS011;855;48.824;9.220;2022-12-18T04:56:04;43.65;;;14.82;;
1715;SDS011;855;48.824;9.220;2022-12-18T04:58:32;56.78;;;16.35;;
1715;SDS011;855;48.824;9.220;2022-12-18T05:00:59;43.45;;;13.82;;
1715;SDS011;855;48.824;9.220;2022-12-18T05:03:27;59.13;;;16.30;;
1715;SDS011;855;48.824;9.220;2022-12-18T05:05:54;42.97;;;14.75;;
1715;SDS011;855;48.824;9.220;2022-12-18T05:08:22;57.33;;;18.02;;
1715;SDS011;855;48.824;9.220;2022-12-18T05:10:49;46.13;;;14.50;;
1715;SDS011;855;48.824;9.220;2022-12-18T05:13:23;43.03;;;16.40;;
1715;SDS011;855;48.824;9.220;2022-12-18T05:15:51;42.28;;;15.27;;
1715;SDS011;855;48.824;9.220;2022-12-18T05:18:18;40.30;;;14.45;;
1715;SDS011;855;48.824;9.220;2022-12-18T05:20:45;47.08;;;15.95;;
1715;SDS011;855;48.824;9.220;2022-12-18T05:23:12;38.90;;;14.35;;
1715;SDS011;855;48.824;9.220;2022-12-18T05:25:40;46.13;;;14.40;;
1715;SDS011;855;48.824;9.220;2022-12-18T05:28:07;47.90;;;17.15;;
1715;SDS011;855;48.824;9.220;2022-12-18T05:30:34;42.40;;;16.17;;
1715;SDS011;855;48.824;9.220;2022-12-18T05:33:01;36.08;;;13.15;;
1715;SDS011;855;48.824;9.220;2022-12-18T05:35:28;46.40;;;14.82;;
1715;SDS011;855;48.824;9.220;2022-12-18T05:37:54;42.42;;;13.80;;
1715;SDS011;855;48.824;9.220;2022-12-18T05:40:21;48.35;;;15.02;;
1715;SDS011;855;48.824;9.220;2022-12-18T05:42:49;38.22;;;12.60;;
1715;SDS011;855;48.824;9.220;2022-12-18T05:45:16;50.35;;;14.65;;
1715;SDS011;855;48.824;9.220;2022-12-18T05:47:43;43.67;;;16.02;;
1715;SDS011;855;48.824;9.220;2022-12-18T05:50:10;43.33;;;14.57;;
1715;SDS011;855;48.824;9.220;2022-12-18T05:52:36;48.58;;;14.25;;
1715;SDS011;855;48.824;9.220;2022-12-18T05:55:04;46.88;;;14.10;;
1715;SDS011;855;48.824;9.220;2022-12-18T05:57:31;39.88;;;12.40;;
1715;SDS011;855;48.824;9.220;2022-12-18T05:59:59;36.55;;;13.73;;
1715;SDS011;855;48.824;9.220;2022-12-18T06:02:25;32.30;;;13.13;;
1715;SDS011;855;48.824;9.220;2022-12-18T06:04:52;45.55;;;15.38;;
1715;SDS011;855;48.824;9.220;2022-12-18T06:07:19;40.53;;;13.95;;
1715;SDS011;855;48.824;9.220;2022-12-18T06:09:46;46.17;;;13.85;;
1715;SDS011;855;48.824;9.220;2022-12-18T06:12:13;35.13;;;12.73;;
1715;SDS011;855;48.824;9.220;2022-12-18T06:14:39;36.22;;;14.35;;
1715;SDS011;855;48.824;9.220;2022-12-18T06:17:08;39.78;;;13.32;;
1715;SDS011;855;48.824;9.220;2022-12-18T06:19:34;33.90;;;13.50;;
1715;SDS011;855;48.824;9.220;2022-12-18T06:22:01;38.88;;;13.95;;
1715;SDS011;855;48.824;9.220;2022-12-18T06:24:28;35.20;;;11.85;;
1715;SDS011;855;48.824;9.220;2022-12-18T06:26:56;47.42;;;13.70;;
1715;SDS011;855;48.824;9.220;2022-12-18T06:29:23;49.90;;;15.70;;
1715;SDS011;855;48.824;9.220;2022-12-18T06:31:49;45.25;;;12.95;;
1715;SDS011;855;48.824;9.220;2022-12-18T06:34:17;33.58;;;12.63;;
1715;SDS011;855;48.824;9.220;2022-12-18T06:36:44;39.08;;;14.27;;
1715;SDS011;855;48.824;9.220;2022-12-18T06:39:11;52.38;;;15.80;;
1715;SDS011;855;48.824;9.220;2022-12-18T06:41:38;39.45;;;13.35;;
1715;SDS011;855;48.824;9.220;2022-12-18T06:44:05;37.78;;;13.32;;
1715;SDS011;855;48.824;9.220;2022-12-18T06:46:31;40.90;;;14.38;;
1715;SDS011;855;48.824;9.220;2022-12-18T06:48:58;47.58;;;15.13;;
1715;SDS011;855;48.824;9.220;2022-12-18T06:51:26;31.25;;;14.60;;
1715;SDS011;855;48.824;9.220;2022-12-18T06:53:53;48.90;;;13.70;;
1715;SDS011;855;48.824;9.220;2022-12-18T06:56:20;32.50;;;12.55;;
1715;SDS011;855;48.824;9.220;2022-12-18T06:58:50;48.47;;;14.75;;
1715;SDS011;855;48.824;9.220;2022-12-18T07:01:17;46.05;;;14.60;;
1715;SDS011;855;48.824;9.220;2022-12-18T07:03:43;41.13;;;15.38;;
1715;SDS011;855;48.824;9.220;2022-12-18T07:06:13;36.65;;;13.52;;
1715;SDS011;855;48.824;9.220;2022-12-18T07:08:43;41.38;;;16.45;;
1715;SDS011;855;48.824;9.220;2022-12-18T07:11:10;35.35;;;12.18;;
1715;SDS011;855;48.824;9.220;2022-12-18T07:13:37;40.95;;;13.50;;
1715;SDS011;855;48.824;9.220;2022-12-18T07:16:05;44.72;;;12.85;;
1715;SDS011;855;48.824;9.220;2022-12-18T07:18:33;46.42;;;14.60;;
1715;SDS011;855;48.824;9.220;2022-12-18T07:21:02;51.40;;;15.77;;
1715;SDS011;855;48.824;9.220;2022-12-18T07:23:31;39.00;;;12.50;;
1715;SDS011;855;48.824;9.220;2022-12-18T07:26:03;32.78;;;13.93;;
1715;SDS011;855;48.824;9.220;2022-12-18T07:28:31;42.33;;;13.32;;
1715;SDS011;855;48.824;9.220;2022-12-18T07:30:58;29.77;;;12.60;;
1715;SDS011;855;48.824;9.220;2022-12-18T07:33:28;36.03;;;15.40;;
1715;SDS011;855;48.824;9.220;2022-12-18T07:35:55;32.80;;;12.70;;
1715;SDS011;855;48.824;9.220;2022-12-18T07:38:22;36.53;;;14.60;;
1715;SDS011;855;48.824;9.220;2022-12-18T07:40:48;40.50;;;13.27;;
1715;SDS011;855;48.824;9.220;2022-12-18T07:43:17;35.65;;;13.48;;
1715;SDS011;855;48.824;9.220;2022-12-18T07:45:44;35.95;;;14.73;;
1715;SDS011;855;48.824;9.220;2022-12-18T07:48:10;37.80;;;14.10;;
1715;SDS011;855;48.824;9.220;2022-12-18T07:50:37;42.63;;;15.52;;
1715;SDS011;855;48.824;9.220;2022-12-18T07:53:04;39.45;;;13.93;;
1715;SDS011;855;48.824;9.220;2022-12-18T07:55:31;32.92;;;12.93;;
1715;SDS011;855;48.824;9.220;2022-12-18T07:58:00;38.05;;;14.65;;
1715;SDS011;855;48.824;9.220;2022-12-18T08:00:29;43.67;;;15.30;;
1715;SDS011;855;48.824;9.220;2022-12-18T08:02:56;51.78;;;14.57;;
1715;SDS011;855;48.824;9.220;2022-12-18T08:05:23;58.63;;;15.27;;
1715;SDS011;855;48.824;9.220;2022-12-18T08:07:50;51.13;;;17.77;;
1715;SDS011;855;48.824;9.220;2022-12-18T08:10:17;42.22;;;15.35;;
1715;SDS011;855;48.824;9.220;2022-12-18T08:12:44;37.63;;;14.23;;
1715;SDS011;855;48.824;9.220;2022-12-18T08:15:11;38.15;;;14.95;;
1715;SDS011;855;48.824;9.220;2022-12-18T08:17:39;42.40;;;15.55;;
1715;SDS011;855;48.824;9.220;2022-12-18T08:20:06;43.90;;;15.68;;
1715;SDS011;855;48.824;9.220;2022-12-18T08:22:37;28.60;;;11.98;;
1715;SDS011;855;48.824;9.220;2022-12-18T08:25:04;41.83;;;13.77;;
1715;SDS011;855;48.824;9.220;2022-12-18T08:27:31;40.28;;;14.52;;
1715;SDS011;855;48.824;9.220;2022-12-18T08:29:58;50.00;;;13.98;;
1715;SDS011;855;48.824;9.220;2022-12-18T08:32:25;39.38;;;14.70;;
1715;SDS011;855;48.824;9.220;2022-12-18T08:34:55;56.30;;;15.93;;
1715;SDS011;855;48.824;9.220;2022-12-18T08:37:22;56.15;;;16.38;;
1715;SDS011;855;48.824;9.220;2022-12-18T08:39:48;41.67;;;16.77;;
1715;SDS011;855;48.824;9.220;2022-12-18T08:42:15;42.75;;;14.93;;
1715;SDS011;855;48.824;9.220;2022-12-18T08:45:00;55.95;;;16.02;;
1715;SDS011;855;48.824;9.220;2022-12-18T08:47:27;50.28;;;14.98;;
1715;SDS011;855;48.824;9.220;2022-12-18T08:49:55;31.55;;;12.63;;
1715;SDS011;855;48.824;9.220;2022-12-18T08:52:22;45.00;;;15.23;;
1715;SDS011;855;48.824;9.220;2022-12-18T08:54:48;42.00;;;13.88;;
1715;SDS011;855;48.824;9.220;2022-12-18T08:57:15;43.47;;;14.95;;
1715;SDS011;855;48.824;9.220;2022-12-18T08:59:42;31.83;;;13.60;;
1715;SDS011;855;48.824;9.220;2022-12-18T09:02:09;33.47;;;12.23;;
1715;SDS011;855;48.824;9.220;2022-12-18T09:04:37;39.40;;;14.25;;
1715;SDS011;855;48.824;9.220;2022-12-18T09:07:06;44.05;;;16.25;;
1715;SDS011;855;48.824;9.220;2022-12-18T09:09:33;43.20;;;18.52;;
1715;SDS011;855;48.824;9.220;2022-12-18T09:12:00;55.60;;;14.40;;
1715;SDS011;855;48.824;9.220;2022-12-18T09:14:26;51.92;;;16.52;;
1715;SDS011;855;48.824;9.220;2022-12-18T09:16:53;45.08;;;15.75;;
1715;SDS011;855;48.824;9.220;2022-12-18T09:19:20;54.30;;;16.98;;
1715;SDS011;855;48.824;9.220;2022-12-18T09:21:47;42.67;;;16.27;;
1715;SDS011;855;48.824;9.220;2022-12-18T09:24:15;52.90;;;13.85;;
1715;SDS011;855;48.824;9.220;2022-12-18T09:26:42;47.60;;;14.60;;
1715;SDS011;855;48.824;9.220;2022-12-18T09:29:09;39.22;;;14.95;;
1715;SDS011;855;48.824;9.220;2022-12-18T09:31:36;36.05;;;14.20;;
1715;SDS011;855;48.824;9.220;2022-12-18T09:34:04;49.47;;;17.92;;
1715;SDS011;855;48.824;9.220;2022-12-18T09:36:31;55.10;;;16.63;;
1715;SDS011;855;48.824;9.220;2022-12-18T09:38:58;46.90;;;15.30;;
1715;SDS011;855;48.824;9.220;2022-12-18T09:41:37;50.63;;;15.52;;
1715;SDS011;855;48.824;9.220;2022-12-18T09:44:19;50.58;;;15.32;;
1715;SDS011;855;48.824;9.220;2022-12-18T09:46:58;35.45;;;13.85;;
1715;SDS011;855;48.824;9.220;2022-12-18T09:49:35;49.10;;;14.88;;
1715;SDS011;855;48.824;9.220;2022-12-18T09:52:08;47.65;;;16.08;;
1715;SDS011;855;48.824;9.220;2022-12-18T09:54:43;50.63;;;15.73;;
1715;SDS011;855;48.824;9.220;2022-12-18T09:57:18;41.63;;;13.48;;
1715;SDS011;855;48.824;9.220;2022-12-18T09:59:49;46.10;;;17.33;;
1715;SDS011;855;48.824;9.220;2022-12-18T10:02:20;39.30;;;15.40;;
1715;SDS011;855;48.824;9.220;2022-12-18T10:04:51;33.38;;;15.23;;
1715;SDS011;855;48.824;9.220;2022-12-18T10:07:29;47.90;;;16.13;;
1715;SDS011;855;48.824;9.220;2022-12-18T10:10:06;46.60;;;15.05;;
1715;SDS011;855;48.824;9.220;2022-12-18T10:12:42;49.97;;;15.95;;
1715;SDS011;855;48.824;9.220;2022-12-18T10:15:15;53.05;;;15.95;;
1715;SDS011;855;48.824;9.220;2022-12-18T10:17:51;43.60;;;14.07;;
1715;SDS011;855;48.824;9.220;2022-12-18T10:20:24;61.90;;;14.73;;
1715;SDS011;855;48.824;9.220;2022-12-18T10:23:00;57.42;;;15.07;;
1715;SDS011;855;48.824;9.220;2022-12-18T10:25:31;40.65;;;14.73;;
1715;SDS011;855;48.824;9.220;2022-12-18T10:28:09;47.83;;;14.82;;
1715;SDS011;855;48.824;9.220;2022-12-18T10:30:39;42.47;;;13.88;;
1715;SDS011;855;48.824;9.220;2022-12-18T10:33:08;34.30;;;12.57;;
1715;SDS011;855;48.824;9.220;2022-12-18T10:35:40;33.38;;;14.60;;
1715;SDS011;855;48.824;9.220;2022-12-18T10:38:20;35.83;;;13.97;;
1715;SDS011;855;48.824;9.220;2022-12-18T10:40:50;42.67;;;14.32;;
1715;SDS011;855;48.824;9.220;2022-12-18T10:43:24;32.40;;;13.95;;
1715;SDS011;855;48.824;9.220;2022-12-18T10:46:03;43.33;;;11.93;;
1715;SDS011;855;48.824;9.220;2022-12-18T10:48:39;34.83;;;12.40;;
1715;SDS011;855;48.824;9.220;2022-12-18T10:51:19;25.05;;;10.25;;
1715;SDS011;855;48.824;9.220;2022-12-18T10:53:51;20.87;;;8.90;;
1715;SDS011;855;48.824;9.220;2022-12-18T10:56:21;36.20;;;12.30;;
1715;SDS011;855;48.824;9.220;2022-12-18T10:58:56;22.90;;;10.37;;
1715;SDS011;855;48.824;9.220;2022-12-18T11:01:25;37.10;;;12.70;;
1715;SDS011;855;48.824;9.220;2022-12-18T11:04:00;49.63;;;14.80;;
1715;SDS011;855;48.824;9.220;2022-12-18T11:06:28;40.17;;;13.27;;
1715;SDS011;855;48.824;9.220;2022-12-18T11:09:01;18.80;;;7.57;;
1715;SDS011;855;48.824;9.220;2022-12-18T11:11:31;19.37;;;6.40;;
1715;SDS011;855;48.824;9.220;2022-12-18T11:14:02;26.63;;;9.50;;
1715;SDS011;855;48.824;9.220;2022-12-18T11:16:31;19.40;;;9.60;;
1715;SDS011;855;48.824;9.220;2022-12-18T11:19:13;25.33;;;7.23;;
1715;SDS011;855;48.824;9.220;2022-12-18T11:21:47;29.03;;;10.00;;
1715;SDS011;855;48.824;9.220;2022-12-18T11:24:22;25.47;;;10.43;;
1715;SDS011;855;48.824;9.220;2022-12-18T11:26:53;43.67;;;13.87;;
1715;SDS011;855;48.824;9.220;2022-12-18T11:29:24;21.87;;;9.83;;
1715;SDS011;855;48.824;9.220;2022-12-18T11:34:48;25.93;;;9.30;;
1715;SDS011;855;48.824;9.220;2022-12-18T11:37:18;31.60;;;11.07;;
1715;SDS011;855;48.824;9.220;2022-12-18T11:39:46;18.13;;;6.30;;
1715;SDS011;855;48.824;9.220;2022-12-18T11:42:20;25.77;;;10.17;;
1715;SDS011;855;48.824;9.220;2022-12-18T11:44:53;23.07;;;9.20;;
1715;SDS011;855;48.824;9.220;2022-12-18T11:47:25;36.87;;;12.43;;
1715;SDS011;855;48.824;9.220;2022-12-18T11:49:55;31.60;;;10.90;;
1715;SDS011;855;48.824;9.220;2022-12-18T11:52:27;25.50;;;9.87;;
1715;SDS011;855;48.824;9.220;2022-12-18T11:54:58;15.30;;;6.40;;
1715;SDS011;855;48.824;9.220;2022-12-18T11:57:30;17.27;;;7.60;;
1715;SDS011;855;48.824;9.220;2022-12-18T12:00:04;28.00;;;11.30;;
1715;SDS011;855;48.824;9.220;2022-12-18T12:02:41;31.63;;;11.93;;
1715;SDS011;855;48.824;9.220;2022-12-18T12:05:29;25.53;;;11.40;;
1715;SDS011;855;48.824;9.220;2022-12-18T12:08:06;28.83;;;10.60;;
1715;SDS011;855;48.824;9.220;2022-12-18T12:10:41;27.80;;;11.70;;
1715;SDS011;855;48.824;9.220;2022-12-18T12:13:22;39.43;;;12.63;;
1715;SDS011;855;48.824;9.220;2022-12-18T12:16:04;33.63;;;11.93;;
1715;SDS011;855;48.824;9.220;2022-12-18T12:18:41;25.10;;;11.87;;
1715;SDS011;855;48.824;9.220;2022-12-18T12:21:18;39.27;;;12.93;;
1715;SDS011;855;48.824;9.220;2022-12-18T12:23:52;36.00;;;11.03;;
1715;SDS011;855;48.824;9.220;2022-12-18T12:26:27;32.90;;;10.90;;
1715;SDS011;855;48.824;9.220;2022-12-18T12:29:07;23.60;;;8.00;;
1715;SDS011;855;48.824;9.220;2022-12-18T12:31:54;11.87;;;6.63;;
1715;SDS011;855;48.824;9.220;2022-12-18T12:34:32;32.90;;;10.57;;
1715;SDS011;855;48.824;9.220;2022-12-18T12:37:07;25.27;;;8.93;;
1715;SDS011;855;48.824;9.220;2022-12-18T12:39:42;17.67;;;7.07;;
1715;SDS011;855;48.824;9.220;2022-12-18T12:42:13;33.00;;;12.67;;
1715;SDS011;855;48.824;9.220;2022-12-18T12:45:03;26.93;;;8.90;;
1715;SDS011;855;48.824;9.220;2022-12-18T12:47:35;19.17;;;8.17;;
1715;SDS011;855;48.824;9.220;2022-12-18T12:50:12;22.83;;;8.27;;
1715;SDS011;855;48.824;9.220;2022-12-18T12:52:42;27.70;;;9.80;;
1715;SDS011;855;48.824;9.220;2022-12-18T12:55:14;14.90;;;6.80;;
1715;SDS011;855;48.824;9.220;2022-12-18T12:57:45;13.50;;;7.93;;
1715;SDS011;855;48.824;9.220;2022-12-18T13:00:21;33.03;;;7.67;;
1715;SDS011;855;48.824;9.220;2022-12-18T13:02:51;18.27;;;7.07;;
1715;SDS011;855;48.824;9.220;2022-12-18T13:05:25;18.40;;;8.63;;
1715;SDS011;855;48.824;9.220;2022-12-18T13:07:57;21.50;;;7.93;;
1715;SDS011;855;48.824;9.220;2022-12-18T13:10:32;21.80;;;7.47;;
1715;SDS011;855;48.824;9.220;2022-12-18T13:13:00;22.63;;;8.10;;
1715;SDS011;855;48.824;9.220;2022-12-18T13:15:30;15.90;;;8.90;;
1715;SDS011;855;48.824;9.220;2022-12-18T13:18:04;17.43;;;7.47;;
1715;SDS011;855;48.824;9.220;2022-12-18T13:20:43;30.03;;;9.50;;
1715;SDS011;855;48.824;9.220;2022-12-18T13:23:19;20.03;;;9.10;;
1715;SDS011;855;48.824;9.220;2022-12-18T13:25:54;28.50;;;9.63;;
1715;SDS011;855;48.824;9.220;2022-12-18T13:28:22;27.77;;;8.47;;
1715;SDS011;855;48.824;9.220;2022-12-18T13:31:10;21.07;;;9.40;;
1715;SDS011;855;48.824;9.220;2022-12-18T13:33:42;16.67;;;7.10;;
1715;SDS011;855;48.824;9.220;2022-12-18T13:36:13;22.00;;;8.77;;
1715;SDS011;855;48.824;9.220;2022-12-18T13:41:51;23.40;;;8.33;;
1715;SDS011;855;48.824;9.220;2022-12-18T13:44:27;20.10;;;9.30;;
1715;SDS011;855;48.824;9.220;2022-12-18T13:46:58;27.07;;;10.83;;
1715;SDS011;855;48.824;9.220;2022-12-18T13:49:28;23.73;;;9.87;;
1715;SDS011;855;48.824;9.220;2022-12-18T13:52:03;20.43;;;7.77;;
1715;SDS011;855;48.824;9.220;2022-12-18T13:54:42;28.90;;;6.73;;
1715;SDS011;855;48.824;9.220;2022-12-18T13:57:25;23.07;;;9.77;;
1715;SDS011;855;48.824;9.220;2022-12-18T13:59:53;27.70;;;10.90;;
1715;SDS011;855;48.824;9.220;2022-12-18T14:02:21;19.37;;;9.10;;
1715;SDS011;855;48.824;9.220;2022-12-18T14:04:50;24.80;;;9.23;;
1715;SDS011;855;48.824;9.220;2022-12-18T14:07:19;17.50;;;8.33;;
1715;SDS011;855;48.824;9.220;2022-12-18T14:09:49;24.70;;;8.90;;
1715;SDS011;855;48.824;9.220;2022-12-18T14:12:18;13.13;;;5.83;;
1715;SDS011;855;48.824;9.220;2022-12-18T14:15:06;13.03;;;7.20;;
1715;SDS011;855;48.824;9.220;2022-12-18T14:17:39;23.13;;;7.47;;
1715;SDS011;855;48.824;9.220;2022-12-18T14:20:13;25.93;;;9.20;;
1715;SDS011;855;48.824;9.220;2022-12-18T14:22:42;20.80;;;7.77;;
1715;SDS011;855;48.824;9.220;2022-12-18T14:25:17;26.70;;;9.50;;
1715;SDS011;855;48.824;9.220;2022-12-18T14:27:46;21.60;;;9.07;;
1715;SDS011;855;48.824;9.220;2022-12-18T14:30:28;16.27;;;7.90;;
1715;SDS011;855;48.824;9.220;2022-12-18T14:32:59;21.57;;;8.00;;
1715;SDS011;855;48.824;9.220;2022-12-18T14:35:31;33.13;;;10.33;;
1715;SDS011;855;48.824;9.220;2022-12-18T14:38:09;29.10;;;10.17;;
1715;SDS011;855;48.824;9.220;2022-12-18T14:40:37;31.37;;;11.10;;
1715;SDS011;855;48.824;9.220;2022-12-18T14:43:04;26.93;;;13.27;;
1715;SDS011;855;48.824;9.220;2022-12-18T14:45:42;28.10;;;11.47;;
1715;SDS011;855;48.824;9.220;2022-12-18T14:48:13;26.03;;;10.63;;
1715;SDS011;855;48.824;9.220;2022-12-18T14:50:45;27.37;;;9.60;;
1715;SDS011;855;48.824;9.220;2022-12-18T14:53:22;13.87;;;6.30;;
1715;SDS011;855;48.824;9.220;2022-12-18T14:55:56;24.60;;;11.33;;
1715;SDS011;855;48.824;9.220;2022-12-18T14:58:23;12.20;;;6.97;;
1715;SDS011;855;48.824;9.220;2022-12-18T15:00:49;26.37;;;11.83;;
1715;SDS011;855;48.824;9.220;2022-12-18T15:03:17;19.93;;;9.43;;
1715;SDS011;855;48.824;9.220;2022-12-18T15:05:47;21.20;;;8.73;;
1715;SDS011;855;48.824;9.220;2022-12-18T15:08:26;49.40;;;11.83;;
1715;SDS011;855;48.824;9.220;2022-12-18T15:10:56;25.60;;;11.17;;
1715;SDS011;855;48.824;9.220;2022-12-18T15:13:23;31.13;;;12.03;;
1715;SDS011;855;48.824;9.220;2022-12-18T15:15:50;43.57;;;14.80;;
1715;SDS011;855;48.824;9.220;2022-12-18T15:18:19;38.20;;;14.30;;
1715;SDS011;855;48.824;9.220;2022-12-18T15:20:51;31.53;;;11.80;;
1715;SDS011;855;48.824;9.220;2022-12-18T15:23:20;28.37;;;12.93;;
1715;SDS011;855;48.824;9.220;2022-12-18T15:25:49;31.10;;;11.37;;
1715;SDS011;855;48.824;9.220;2022-12-18T15:28:22;37.33;;;13.27;;
1715;SDS011;855;48.824;9.220;2022-12-18T15:31:01;26.33;;;10.70;;